createdAt,value
2019-02-06T00:06:25.315Z,23.47
2019-02-06T00:16:27.120Z,25.53
2019-02-06T00:26:29.466Z,27.40
2019-02-06T00:36:31.090Z,29.00
2019-02-06T00:46:32.896Z,24.50
2019-02-06T00:56:34.356Z,21.37
2019-02-06T01:06:36.224Z,19.13
2019-02-06T01:16:37.695Z,17.97
2019-02-06T01:26:40.551Z,16.80
2019-02-06T01:36:42.465Z,26.90
2019-02-06T01:46:43.872Z,35.00
2019-02-06T01:56:45.335Z,25.87
2019-02-06T02:06:47.157Z,27.67
2019-02-06T02:16:48.563Z,27.73
2019-02-06T02:26:51.988Z,29.47
2019-02-06T02:36:53.885Z,28.67
2019-02-06T02:46:55.391Z,29.00
2019-02-06T02:56:56.860Z,31.03
2019-02-06T03:06:58.391Z,30.20
2019-02-06T03:17:03.070Z,30.13
2019-02-06T03:27:04.186Z,31.10
2019-02-06T03:37:05.780Z,31.97
2019-02-06T03:47:07.433Z,32.03
2019-02-06T03:57:08.891Z,65.30
2019-02-06T04:07:10.560Z,37.90
2019-02-06T04:17:12.016Z,28.03
2019-02-06T04:27:15.357Z,22.53
2019-02-06T04:37:16.860Z,32.37
2019-02-06T04:47:18.278Z,27.03
2019-02-06T04:57:19.950Z,30.57
2019-02-06T05:07:21.805Z,30.70
2019-02-06T05:17:23.292Z,28.13
2019-02-06T05:27:26.572Z,26.43
2019-02-06T05:37:32.010Z,31.30
2019-02-06T05:47:31.303Z,43.30
2019-02-06T05:57:32.777Z,41.10
2019-02-06T06:07:44.793Z,33.37
2019-02-06T06:17:37.858Z,56.90
2019-02-06T06:27:40.411Z,45.73
2019-02-06T06:37:42.532Z,42.40
2019-02-06T06:47:43.940Z,32.90
2019-02-06T06:57:45.444Z,51.10
2019-02-06T07:07:47.180Z,82.60
2019-02-06T07:17:48.703Z,53.63
2019-02-06T07:27:51.219Z,45.20
2019-02-06T07:37:53.075Z,47.70
2019-02-06T07:47:54.481Z,47.83
2019-02-06T07:57:56.055Z,58.87
2019-02-06T08:07:57.884Z,56.17
2019-02-06T08:17:59.293Z,76.50
2019-02-06T08:28:01.688Z,85.03
2019-02-06T08:38:03.308Z,72.90
2019-02-06T08:48:04.920Z,63.33
2019-02-06T08:58:06.505Z,60.93
2019-02-06T09:08:08.137Z,56.63
2019-02-06T09:18:09.624Z,67.07
2019-02-06T09:28:11.972Z,254.80
2019-02-06T09:38:13.497Z,35.93
2019-02-06T09:48:14.912Z,27.03
2019-02-06T09:58:16.372Z,40.53
2019-02-06T10:08:18.420Z,27.90
2019-02-06T10:18:19.798Z,15.07
2019-02-06T10:28:24.303Z,12.40
2019-02-06T10:38:25.602Z,10.87
2019-02-06T10:48:27.020Z,12.23
2019-02-06T10:58:28.497Z,18.47
2019-02-06T11:08:30.025Z,5.10
2019-02-06T11:18:31.778Z,5.07
2019-02-06T11:28:34.112Z,8.20
2019-02-06T11:38:35.640Z,10.17
2019-02-06T11:48:37.016Z,11.80
2019-02-06T11:58:38.497Z,8.87
2019-02-06T12:08:40.399Z,8.03
2019-02-06T12:18:41.956Z,9.20
2019-02-06T12:28:44.684Z,14.30
2019-02-06T12:38:53.619Z,8.23
2019-02-06T12:48:49.524Z,8.37
2019-02-06T12:58:51.245Z,10.40
2019-02-06T13:08:52.680Z,12.40
2019-02-06T13:18:54.093Z,8.93
2019-02-06T13:28:56.568Z,10.67
2019-02-06T13:38:58.101Z,12.20
2019-02-06T13:48:59.522Z,12.53
2019-02-06T13:59:01.008Z,38.50
2019-02-06T14:09:07.155Z,11.37
2019-02-06T14:19:08.717Z,11.53
2019-02-06T14:29:30.293Z,11.43
2019-02-06T14:39:38.661Z,12.50
2019-02-06T15:00:59.825Z,18.27
2019-02-06T15:11:07.663Z,13.67
2019-02-06T15:21:27.457Z,51.10
2019-02-06T15:32:07.605Z,44.30
2019-02-06T15:42:21.954Z,40.40
2019-02-06T15:52:48.576Z,53.73
2019-02-06T16:03:16.476Z,36.90
2019-02-06T16:13:42.832Z,64.37
2019-02-06T16:24:18.680Z,65.77
2019-02-06T16:34:36.529Z,128.60
2019-02-06T16:45:02.766Z,101.57
2019-02-06T16:55:42.992Z,131.63
2019-02-06T17:05:48.588Z,105.97
2019-02-06T17:15:53.820Z,143.50
2019-02-06T17:26:05.165Z,108.70
2019-02-06T17:36:30.628Z,95.33
2019-02-06T17:46:42.160Z,86.20
2019-02-06T17:56:43.569Z,84.77
2019-02-06T18:06:45.134Z,162.33
2019-02-06T18:16:46.877Z,148.57
2019-02-06T18:26:48.293Z,167.67
2019-02-06T18:36:53.218Z,282.70
2019-02-06T18:46:58.091Z,194.80
2019-02-06T18:56:59.508Z,153.10
2019-02-06T19:07:01.016Z,136.43
2019-02-06T19:17:02.452Z,142.47
2019-02-06T19:27:03.977Z,187.73
2019-02-06T19:37:07.261Z,187.63
2019-02-06T19:47:08.808Z,150.10
2019-02-06T19:57:16.405Z,104.53
2019-02-06T20:07:17.811Z,110.87
2019-02-06T20:17:19.366Z,117.00
2019-02-06T20:27:20.828Z,145.00
2019-02-06T20:37:23.464Z,143.23
2019-02-06T20:47:25.012Z,89.47
2019-02-06T20:57:26.464Z,116.17
2019-02-06T21:07:28.153Z,98.23
2019-02-06T21:17:29.692Z,85.30
2019-02-06T21:27:31.223Z,92.17
2019-02-06T21:37:33.577Z,103.03
2019-02-06T21:47:35.165Z,194.47
2019-02-06T21:57:36.644Z,194.10
2019-02-06T22:07:38.024Z,146.53
2019-02-06T22:17:39.660Z,132.77
2019-02-06T22:27:41.109Z,132.17
2019-02-06T22:37:44.549Z,120.60
2019-02-06T22:47:46.321Z,107.27
2019-02-06T22:57:47.884Z,94.20
2019-02-06T23:07:49.305Z,102.47
2019-02-06T23:17:50.808Z,92.97
2019-02-06T23:27:52.224Z,86.23
2019-02-06T23:37:55.657Z,86.60
2019-02-06T23:47:57.183Z,78.47
2019-02-06T23:57:58.696Z,86.87
